createdAt,value
2024-02-19T00:02:18.011Z,102799.19
2024-02-19T00:04:49.543Z,102805.16
2024-02-19T00:07:23.858Z,102799.16
2024-02-19T00:09:55.482Z,102807.69
2024-02-19T00:12:27.255Z,102803.44
2024-02-19T00:14:58.566Z,102807.69
2024-02-19T00:17:30.115Z,102815.34
2024-02-19T00:20:02.537Z,102811.91
2024-02-19T00:22:36.804Z,102812.75
2024-02-19T00:25:08.789Z,102817.84
2024-02-19T00:27:40.424Z,102823.81
2024-02-19T00:30:12.993Z,102818.66
2024-02-19T00:32:44.631Z,102818.66
2024-02-19T00:35:16.098Z,102829.72
2024-02-19T00:37:50.516Z,102830.56
2024-02-19T00:40:22.436Z,102818.63
2024-02-19T00:42:55.118Z,102820.28
2024-02-19T00:45:26.482Z,102821.97
2024-02-19T00:47:57.869Z,102816.84
2024-02-19T00:50:29.213Z,102820.25
2024-02-19T00:53:03.459Z,102826.16
2024-02-19T00:55:34.731Z,102824.50
2024-02-19T00:58:06.045Z,102829.53
2024-02-19T01:00:38.399Z,102826.16
2024-02-19T01:03:12.597Z,102828.72
2024-02-19T01:05:44.200Z,102827.00
2024-02-19T01:08:18.160Z,102836.38
2024-02-19T01:10:49.556Z,102838.06
2024-02-19T01:13:21.353Z,102835.53
2024-02-19T01:15:52.788Z,102845.72
2024-02-19T01:18:24.152Z,102843.16
2024-02-19T01:20:56.726Z,102847.41
2024-02-19T01:23:30.663Z,102850.00
2024-02-19T01:26:01.978Z,102857.59
2024-02-19T01:28:33.373Z,102859.28
2024-02-19T01:31:04.973Z,102850.75
2024-02-19T01:33:37.972Z,102852.47
2024-02-19T01:36:10.006Z,102851.63
2024-02-19T01:38:43.972Z,102843.16
2024-02-19T01:41:15.683Z,102849.94
2024-02-19T01:43:47.213Z,102843.97
2024-02-19T01:46:19.046Z,102843.97
2024-02-19T01:48:51.022Z,102832.97
2024-02-19T01:51:23.593Z,102832.09
2024-02-19T01:53:59.491Z,102833.78
2024-02-19T01:56:39.272Z,102834.63
2024-02-19T01:59:11.895Z,102828.69
2024-02-19T02:01:45.865Z,102822.69
2024-02-19T02:04:19.898Z,102832.88
2024-02-19T02:06:52.625Z,102836.31
2024-02-19T02:09:27.194Z,102831.16
2024-02-19T02:11:58.966Z,102843.06
2024-02-19T02:14:30.690Z,102848.19
2024-02-19T02:17:02.007Z,102847.34
2024-02-19T02:19:37.443Z,102848.19
2024-02-19T02:22:09.452Z,102849.88
2024-02-19T02:24:45.222Z,102855.81
2024-02-19T02:27:19.287Z,102860.09
2024-02-19T02:29:50.624Z,102849.91
2024-02-19T02:32:22.443Z,102839.69
2024-02-19T02:34:53.811Z,102839.69
2024-02-19T02:37:25.254Z,102839.72
2024-02-19T02:39:54.870Z,102837.16
2024-02-19T02:42:29.279Z,102834.59
2024-02-19T02:45:00.582Z,102838.00
2024-02-19T02:47:31.877Z,102844.78
2024-02-19T02:50:03.187Z,102854.19
2024-02-19T02:52:35.702Z,102856.75
2024-02-19T02:55:07.094Z,102854.19
2024-02-19T02:57:41.080Z,102856.75
2024-02-19T03:00:14.183Z,102840.56
2024-02-19T03:02:45.653Z,102843.97
2024-02-19T03:05:17.934Z,102842.28
2024-02-19T03:07:49.294Z,102846.53
2024-02-19T03:10:20.868Z,102855.88
2024-02-19T03:12:55.016Z,102854.19
2024-02-19T03:15:26.579Z,102850.81
2024-02-19T03:17:57.905Z,102849.09
2024-02-19T03:20:30.003Z,102838.88
2024-02-19T03:23:01.754Z,102853.34
2024-02-19T03:25:33.052Z,102844.84
2024-02-19T03:28:07.087Z,102850.81
2024-02-19T03:30:38.601Z,102845.72
2024-02-19T03:33:10.213Z,102849.94
2024-02-19T03:35:41.644Z,102838.88
2024-02-19T03:38:14.001Z,102844.03
2024-02-19T03:40:45.519Z,102849.13
2024-02-19T03:43:19.530Z,102840.59
2024-02-19T03:45:52.009Z,102842.28
2024-02-19T03:48:23.382Z,102847.41
2024-02-19T03:50:55.020Z,102846.59
2024-02-19T03:53:26.340Z,102846.59
2024-02-19T03:55:57.891Z,102848.28
2024-02-19T03:58:36.390Z,102834.63
2024-02-19T04:01:08.777Z,102848.25
2024-02-19T04:03:40.435Z,102851.63
2024-02-19T04:06:11.961Z,102843.16
2024-02-19T04:08:43.273Z,102838.91
2024-02-19T04:11:17.362Z,102836.34
2024-02-19T04:13:51.276Z,102826.16
2024-02-19T04:16:22.734Z,102821.06
2024-02-19T04:18:54.296Z,102819.31
2024-02-19T04:21:25.840Z,102818.50
2024-02-19T04:23:57.103Z,102830.41
2024-02-19T04:26:28.433Z,102831.25
2024-02-19T04:29:02.325Z,102828.69
2024-02-19T04:31:33.804Z,102838.09
2024-02-19T04:34:06.543Z,102838.91
2024-02-19T04:36:38.101Z,102824.44
2024-02-19T04:39:09.465Z,102822.69
2024-02-19T04:41:41.171Z,102820.13
2024-02-19T04:44:15.110Z,102817.59
2024-02-19T04:46:46.382Z,102813.38
2024-02-19T04:49:17.823Z,102819.31
2024-02-19T04:51:49.947Z,102832.06
2024-02-19T04:54:22.085Z,102840.50
2024-02-19T04:56:54.162Z,102835.41
2024-02-19T04:59:31.168Z,102832.88
2024-02-19T05:02:03.001Z,102833.69
2024-02-19T05:04:34.480Z,102836.31
2024-02-19T05:07:05.953Z,102837.13
2024-02-19T05:09:37.756Z,102834.59
2024-02-19T05:12:10.143Z,102834.59
2024-02-19T05:14:44.047Z,102832.84
2024-02-19T05:17:15.272Z,102828.59
2024-02-19T05:19:46.638Z,102830.28
2024-02-19T05:22:18.220Z,102826.94
2024-02-19T05:24:50.127Z,102821.81
2024-02-19T05:27:23.469Z,102821.81
2024-02-19T05:29:57.329Z,102815.84
2024-02-19T05:32:31.442Z,102820.13
2024-02-19T05:35:03.716Z,102819.28
2024-02-19T05:37:35.801Z,102821.00
2024-02-19T05:40:07.280Z,102815.84
2024-02-19T05:42:39.045Z,102816.72
2024-02-19T05:45:14.250Z,102822.66
2024-02-19T05:47:47.097Z,102826.06
2024-02-19T05:50:19.469Z,102820.09
2024-02-19T05:52:50.972Z,102815.00
2024-02-19T05:55:22.479Z,102819.28
2024-02-19T05:57:53.895Z,102815.00
2024-02-19T06:00:31.307Z,102813.34
2024-02-19T06:03:06.237Z,102819.28
2024-02-19T06:05:37.536Z,102815.94
2024-02-19T06:08:09.412Z,102815.91
2024-02-19T06:10:40.661Z,102821.03
2024-02-19T06:13:12.104Z,102821.06
2024-02-19T06:15:46.472Z,102820.22
2024-02-19T06:18:17.858Z,102815.13
2024-02-19T06:20:49.175Z,102816.84
2024-02-19T06:23:20.457Z,102815.13
2024-02-19T06:25:51.745Z,102817.72
2024-02-19T06:28:22.996Z,102814.31
2024-02-19T06:30:57.077Z,102816.88
2024-02-19T06:33:30.761Z,102806.69
2024-02-19T06:36:02.078Z,102803.31
2024-02-19T06:38:35.999Z,102802.47
2024-02-19T06:41:08.007Z,102805.84
2024-02-19T06:43:39.318Z,102808.44
2024-02-19T06:46:13.686Z,102806.78
2024-02-19T06:48:46.708Z,102803.34
2024-02-19T06:51:21.581Z,102804.22
2024-02-19T06:53:52.887Z,102803.34
2024-02-19T06:56:24.197Z,102805.88
2024-02-19T06:58:55.557Z,102810.13
2024-02-19T07:01:29.821Z,102811.81
2024-02-19T07:04:01.346Z,102810.97
2024-02-19T07:06:32.711Z,102815.19
2024-02-19T07:09:04.057Z,102822.00
2024-02-19T07:11:38.376Z,102823.69
2024-02-19T07:14:10.811Z,102822.84
2024-02-19T07:16:44.719Z,102821.16
2024-02-19T07:19:16.157Z,102816.06
2024-02-19T07:21:47.817Z,102818.66
2024-02-19T07:24:19.274Z,102818.72
2024-02-19T07:26:50.551Z,102815.34
2024-02-19T07:29:23.340Z,102815.38
2024-02-19T07:31:58.032Z,102829.03
2024-02-19T07:34:29.378Z,102823.13
2024-02-19T07:37:00.728Z,102818.88
2024-02-19T07:39:32.320Z,102815.53
2024-02-19T07:42:04.143Z,102809.63
2024-02-19T07:44:35.496Z,102813.97
2024-02-19T07:47:09.680Z,102813.16
2024-02-19T07:49:41.091Z,102821.66
2024-02-19T07:52:12.811Z,102821.75
2024-02-19T07:54:44.071Z,102818.38
2024-02-19T07:57:15.368Z,102815.88
2024-02-19T07:59:46.604Z,102809.94
2024-02-19T08:02:21.034Z,102820.25
2024-02-19T08:04:52.626Z,102813.53
2024-02-19T08:07:24.049Z,102820.44
2024-02-19T08:09:55.440Z,102822.19
2024-02-19T08:12:28.725Z,102825.66
2024-02-19T08:15:00.148Z,102823.13
2024-02-19T08:17:34.150Z,102831.66
2024-02-19T08:20:05.791Z,102837.59
2024-02-19T08:22:37.211Z,102833.41
2024-02-19T08:25:09.334Z,102830.06
2024-02-19T08:27:40.952Z,102834.41
2024-02-19T08:30:13.119Z,102833.59
2024-02-19T08:32:47.943Z,102838.75
2024-02-19T08:35:19.767Z,102835.31
2024-02-19T08:37:51.169Z,102848.09
2024-02-19T08:40:22.522Z,102842.91
2024-02-19T08:42:54.156Z,102847.19
2024-02-19T08:45:28.896Z,102843.78
2024-02-19T08:48:06.862Z,102839.50
2024-02-19T08:50:38.441Z,102837.78
2024-02-19T08:53:10.461Z,102839.50
2024-02-19T08:55:41.874Z,102836.94
2024-02-19T08:58:13.554Z,102833.56
2024-02-19T09:00:45.131Z,102834.41
2024-02-19T09:03:19.106Z,102836.16
2024-02-19T09:05:50.628Z,102832.00
2024-02-19T09:08:21.996Z,102832.84
2024-02-19T09:10:55.177Z,102835.47
2024-02-19T09:13:26.806Z,102838.84
2024-02-19T09:15:58.257Z,102843.16
2024-02-19T09:18:32.475Z,102827.88
2024-02-19T09:21:05.742Z,102829.59
2024-02-19T09:23:37.086Z,102831.31
2024-02-19T09:26:08.617Z,102831.31
2024-02-19T09:28:40.053Z,102836.47
2024-02-19T09:31:11.885Z,102835.63
2024-02-19T09:33:46.217Z,102837.34
2024-02-19T09:36:21.014Z,102839.06
2024-02-19T09:38:54.674Z,102837.41
2024-02-19T09:41:26.083Z,102844.25
2024-02-19T09:43:57.649Z,102834.06
2024-02-19T09:46:29.107Z,102819.59
2024-02-19T09:49:05.606Z,102830.69
2024-02-19T09:51:41.415Z,102820.47
2024-02-19T09:54:14.885Z,102819.63
2024-02-19T09:56:47.263Z,102829.00
2024-02-19T09:59:19.197Z,102828.16
2024-02-19T10:01:51.013Z,102829.00
2024-02-19T10:04:26.684Z,102828.16
2024-02-19T10:06:58.221Z,102829.03
2024-02-19T10:09:29.543Z,102823.91
2024-02-19T10:12:01.680Z,102823.91
2024-02-19T10:14:33.034Z,102811.94
2024-02-19T10:17:06.537Z,102819.66
2024-02-19T10:19:41.295Z,102813.72
2024-02-19T10:22:14.022Z,102799.19
2024-02-19T10:24:46.944Z,102800.91
2024-02-19T10:27:19.094Z,102805.19
2024-02-19T10:29:50.481Z,102799.19
2024-02-19T10:32:30.538Z,102799.25
2024-02-19T10:35:04.652Z,102795.81
2024-02-19T10:37:37.197Z,102788.97
2024-02-19T10:40:18.717Z,102788.13
2024-02-19T10:42:52.513Z,102799.25
2024-02-19T10:45:24.773Z,102789.03
2024-02-19T10:47:57.350Z,102784.78
2024-02-19T10:50:35.844Z,102784.78
2024-02-19T10:53:09.953Z,102780.53
2024-02-19T10:55:53.024Z,102776.25
2024-02-19T10:58:29.561Z,102779.66
2024-02-19T11:01:06.133Z,102781.38
2024-02-19T11:03:48.297Z,102767.72
2024-02-19T11:06:22.330Z,102772.84
2024-02-19T11:08:56.799Z,102762.66
2024-02-19T11:11:28.473Z,102747.31
2024-02-19T11:14:02.610Z,102758.44
2024-02-19T11:16:34.106Z,102736.22
2024-02-19T11:19:05.505Z,102740.50
2024-02-19T11:21:39.692Z,102749.88
2024-02-19T11:24:12.631Z,102739.63
2024-02-19T11:26:44.855Z,102728.53
2024-02-19T11:29:23.566Z,102734.56
2024-02-19T11:32:03.993Z,102731.16
2024-02-19T11:34:36.981Z,102727.75
2024-02-19T11:37:15.174Z,102726.91
2024-02-19T11:39:46.874Z,102726.91
2024-02-19T11:42:19.817Z,102721.75
2024-02-19T11:44:52.121Z,102714.06
2024-02-19T11:47:23.643Z,102715.75
2024-02-19T11:49:57.285Z,102709.75
2024-02-19T11:52:31.755Z,102705.53
2024-02-19T11:55:03.125Z,102708.09
2024-02-19T11:57:35.242Z,102702.16
2024-02-19T12:00:07.847Z,102705.50
2024-02-19T12:02:46.675Z,102711.47
2024-02-19T12:05:18.092Z,102708.88
2024-02-19T12:07:52.365Z,102708.03
2024-02-19T12:10:23.961Z,102692.69
2024-02-19T12:12:55.706Z,102679.88
2024-02-19T12:15:27.130Z,102696.09
2024-02-19T12:17:58.587Z,102692.69
2024-02-19T12:20:30.154Z,102686.72
2024-02-19T12:23:05.052Z,102689.28
2024-02-19T12:25:36.416Z,102689.28
2024-02-19T12:28:08.206Z,102691.00
2024-02-19T12:30:39.567Z,102683.31
2024-02-19T12:33:12.614Z,102685.06
2024-02-19T12:35:48.339Z,102685.94
2024-02-19T12:38:22.367Z,102685.06
2024-02-19T12:40:53.731Z,102677.41
2024-02-19T12:43:25.053Z,102670.56
2024-02-19T12:45:56.512Z,102667.16
2024-02-19T12:48:27.930Z,102651.78
2024-02-19T12:50:59.365Z,102659.47
2024-02-19T12:53:33.816Z,102666.28
2024-02-19T12:56:06.483Z,102652.63
2024-02-19T12:58:38.403Z,102651.78
2024-02-19T13:01:20.568Z,102644.94
2024-02-19T13:03:59.257Z,102633.84
2024-02-19T13:06:31.532Z,102639.84
2024-02-19T13:09:06.693Z,102640.69
2024-02-19T13:11:39.049Z,102644.94
2024-02-19T13:14:11.824Z,102647.47
2024-02-19T13:16:44.600Z,102635.53
2024-02-19T13:19:16.981Z,102631.25
2024-02-19T13:21:48.797Z,102639.78
2024-02-19T13:24:22.703Z,102650.03
2024-02-19T13:26:54.705Z,102652.56
2024-02-19T13:29:26.091Z,102644.03
2024-02-19T13:31:58.170Z,102647.44
2024-02-19T13:34:29.589Z,102648.28
2024-02-19T13:37:00.980Z,102643.16
2024-02-19T13:39:35.211Z,102638.88
2024-02-19T13:42:06.737Z,102649.13
2024-02-19T13:44:39.680Z,102648.25
2024-02-19T13:47:11.698Z,102654.19
2024-02-19T13:49:43.575Z,102655.03
2024-02-19T13:52:15.824Z,102646.50
2024-02-19T13:54:50.037Z,102657.53
2024-02-19T13:57:21.433Z,102646.44
2024-02-19T13:59:54.493Z,102648.13
2024-02-19T14:02:28.104Z,102637.88
2024-02-19T14:04:59.651Z,102648.94
2024-02-19T14:07:31.441Z,102644.72
2024-02-19T14:10:06.174Z,102640.44
2024-02-19T14:12:37.730Z,102635.28
2024-02-19T14:15:10.078Z,102640.41
2024-02-19T14:17:41.459Z,102631.00
2024-02-19T14:20:14.204Z,102631.00
2024-02-19T14:22:45.608Z,102634.44
2024-02-19T14:25:19.751Z,102636.97
2024-02-19T14:27:52.657Z,102643.75
2024-02-19T14:30:24.270Z,102630.09
2024-02-19T14:32:55.763Z,102633.47
2024-02-19T14:35:27.392Z,102636.03
2024-02-19T14:37:59.749Z,102638.59
2024-02-19T14:40:34.199Z,102636.88
2024-02-19T14:43:05.906Z,102637.72
2024-02-19T14:45:37.168Z,102631.75
2024-02-19T14:48:09.866Z,102644.53
2024-02-19T14:50:41.926Z,102642.81
2024-02-19T14:53:13.590Z,102638.53
2024-02-19T14:55:47.442Z,102636.88
2024-02-19T14:58:19.000Z,102638.59
2024-02-19T15:00:51.716Z,102632.63
2024-02-19T15:03:23.175Z,102641.16
2024-02-19T15:05:54.705Z,102640.31
2024-02-19T15:08:26.103Z,102633.53
2024-02-19T15:11:00.393Z,102639.47
2024-02-19T15:13:31.946Z,102630.09
2024-02-19T15:16:03.412Z,102630.94
2024-02-19T15:18:34.835Z,102624.09
2024-02-19T15:21:06.934Z,102630.94
2024-02-19T15:23:41.149Z,102627.50
2024-02-19T15:26:16.296Z,102630.88
2024-02-19T15:28:48.305Z,102631.72
2024-02-19T15:31:19.746Z,102628.31
2024-02-19T15:33:51.117Z,102635.97
2024-02-19T15:36:22.480Z,102630.03
2024-02-19T15:38:53.744Z,102633.41
2024-02-19T15:41:32.918Z,102633.38
2024-02-19T15:44:05.571Z,102631.66
2024-02-19T15:46:37.306Z,102630.81
2024-02-19T15:49:08.846Z,102632.50
2024-02-19T15:51:40.628Z,102633.38
2024-02-19T15:54:11.948Z,102634.19
2024-02-19T15:56:45.833Z,102629.09
2024-02-19T15:59:17.757Z,102627.38
2024-02-19T16:01:50.038Z,102628.25
2024-02-19T16:04:23.722Z,102625.69
2024-02-19T16:06:55.268Z,102635.88
2024-02-19T16:09:26.784Z,102633.31
2024-02-19T16:12:01.704Z,102627.38
2024-02-19T16:14:35.542Z,102636.72
2024-02-19T16:17:07.018Z,102630.75
2024-02-19T16:19:38.948Z,102634.16
2024-02-19T16:22:10.677Z,102637.53
2024-02-19T16:24:41.961Z,102640.09
2024-02-19T16:27:15.998Z,102634.16
2024-02-19T16:29:47.418Z,102638.38
2024-02-19T16:32:20.078Z,102641.75
2024-02-19T16:34:51.491Z,102635.81
2024-02-19T16:37:23.942Z,102635.81
2024-02-19T16:39:55.284Z,102647.69
2024-02-19T16:42:29.301Z,102639.19
2024-02-19T16:45:00.631Z,102651.91
2024-02-19T16:47:31.999Z,102641.69
2024-02-19T16:50:03.998Z,102663.84
2024-02-19T16:52:35.712Z,102657.84
2024-02-19T16:55:07.983Z,102665.50
2024-02-19T16:57:42.026Z,102665.47
2024-02-19T17:00:14.323Z,102675.66
2024-02-19T17:02:47.310Z,102670.50
2024-02-19T17:05:18.750Z,102667.91
2024-02-19T17:07:50.440Z,102687.50
2024-02-19T17:10:22.429Z,102686.59
2024-02-19T17:12:56.593Z,102690.81
2024-02-19T17:15:27.944Z,102683.16
2024-02-19T17:18:00.890Z,102685.72
2024-02-19T17:20:33.497Z,102706.13
2024-02-19T17:23:06.842Z,102694.22
2024-02-19T17:25:38.188Z,102709.50
2024-02-19T17:28:12.420Z,102720.56
2024-02-19T17:30:45.468Z,102717.16
2024-02-19T17:33:16.927Z,102729.88
2024-02-19T17:35:48.342Z,102724.75
2024-02-19T17:38:22.601Z,102729.84
2024-02-19T17:40:55.697Z,102729.78
2024-02-19T17:43:29.817Z,102733.13
2024-02-19T17:46:04.312Z,102731.38
2024-02-19T17:48:38.383Z,102736.44
2024-02-19T17:51:10.351Z,102736.41
2024-02-19T17:53:44.324Z,102746.63
2024-02-19T17:56:16.676Z,102740.63
2024-02-19T17:58:50.627Z,102751.69
2024-02-19T18:01:26.505Z,102752.44
2024-02-19T18:03:58.337Z,102760.06
2024-02-19T18:06:29.738Z,102759.97
2024-02-19T18:09:02.039Z,102759.06
2024-02-19T18:11:34.172Z,102760.69
2024-02-19T18:14:08.052Z,102763.22
2024-02-19T18:16:41.596Z,102770.84
2024-02-19T18:19:14.803Z,102773.31
2024-02-19T18:21:48.825Z,102766.44
2024-02-19T18:24:20.122Z,102774.06
2024-02-19T18:26:51.384Z,102779.97
2024-02-19T18:29:26.354Z,102782.44
2024-02-19T18:32:01.681Z,102785.78
2024-02-19T18:34:35.835Z,102785.75
2024-02-19T18:37:07.459Z,102786.56
2024-02-19T18:39:38.770Z,102788.28
2024-02-19T18:42:12.071Z,102792.50
2024-02-19T18:44:46.005Z,102799.28
2024-02-19T18:47:17.365Z,102792.44
2024-02-19T18:49:48.814Z,102796.75
2024-02-19T18:52:20.576Z,102799.31
2024-02-19T18:54:52.629Z,102798.47
2024-02-19T18:57:24.660Z,102801.88
2024-02-19T18:59:58.578Z,102807.00
2024-02-19T19:02:30.911Z,102806.16
2024-02-19T19:05:02.490Z,102815.53
2024-02-19T19:07:34.165Z,102803.66
2024-02-19T19:10:06.988Z,102809.63
2024-02-19T19:12:38.597Z,102811.28
2024-02-19T19:15:13.432Z,102813.00
2024-02-19T19:17:46.107Z,102816.41
2024-02-19T19:20:17.873Z,102815.53
2024-02-19T19:22:49.581Z,102818.09
2024-02-19T19:25:21.151Z,102818.09
2024-02-19T19:27:52.486Z,102825.72
2024-02-19T19:30:27.047Z,102823.09
2024-02-19T19:32:59.549Z,102824.81
2024-02-19T19:35:32.629Z,102825.63
2024-02-19T19:38:04.386Z,102826.44
2024-02-19T19:40:35.838Z,102834.03
2024-02-19T19:43:07.487Z,102828.03
2024-02-19T19:45:41.428Z,102837.34
2024-02-19T19:48:12.841Z,102833.00
2024-02-19T19:50:44.218Z,102833.00
2024-02-19T19:53:20.025Z,102838.03
2024-02-19T19:55:52.208Z,102839.63
2024-02-19T19:58:31.409Z,102833.59
2024-02-19T20:01:07.128Z,102836.03
2024-02-19T20:03:40.374Z,102840.25
2024-02-19T20:06:12.167Z,102841.88
2024-02-19T20:08:46.583Z,102846.84
2024-02-19T20:11:18.185Z,102847.63
2024-02-19T20:13:49.463Z,102857.72
2024-02-19T20:16:22.938Z,102846.63
2024-02-19T20:18:54.374Z,102849.91
2024-02-19T20:21:26.105Z,102853.25
2024-02-19T20:23:57.634Z,102854.09
2024-02-19T20:26:29.108Z,102856.59
2024-02-19T20:29:00.415Z,102857.41
2024-02-19T20:31:35.554Z,102863.31
2024-02-19T20:34:07.144Z,102858.25
2024-02-19T20:36:39.934Z,102856.56
2024-02-19T20:39:15.494Z,102864.19
2024-02-19T20:41:47.241Z,102865.03
2024-02-19T20:44:18.520Z,102864.13
2024-02-19T20:46:52.099Z,102867.47
2024-02-19T20:49:23.532Z,102872.53
2024-02-19T20:51:54.946Z,102872.47
2024-02-19T20:54:26.293Z,102872.38
2024-02-19T20:56:58.142Z,102880.78
2024-02-19T20:59:31.778Z,102877.28
2024-02-19T21:02:08.148Z,102877.28
2024-02-19T21:04:39.628Z,102883.19
2024-02-19T21:07:11.164Z,102881.50
2024-02-19T21:09:42.590Z,102876.41
2024-02-19T21:12:14.137Z,102888.28
2024-02-19T21:14:45.818Z,102893.44
2024-02-19T21:17:19.766Z,102890.81
2024-02-19T21:19:51.309Z,102890.81
2024-02-19T21:22:28.085Z,102890.75
2024-02-19T21:25:01.147Z,102892.38
2024-02-19T21:27:33.178Z,102889.75
2024-02-19T21:30:05.169Z,102886.31
2024-02-19T21:32:39.620Z,102896.41
2024-02-19T21:35:13.045Z,102903.06
2024-02-19T21:37:44.437Z,102915.69
2024-02-19T21:40:16.954Z,102902.91
2024-02-19T21:42:48.499Z,102902.84
2024-02-19T21:45:20.125Z,102895.97
2024-02-19T21:47:54.065Z,102899.31
2024-02-19T21:50:25.405Z,102903.47
2024-02-19T21:52:56.291Z,102895.81
2024-02-19T21:55:29.006Z,102901.69
2024-02-19T21:58:00.889Z,102904.16
2024-02-19T22:00:32.436Z,102900.66
2024-02-19T22:03:06.697Z,102898.84
2024-02-19T22:05:38.163Z,102899.47
2024-02-19T22:08:10.730Z,102914.59
2024-02-19T22:10:42.040Z,102920.50
2024-02-19T22:13:13.627Z,102922.13
2024-02-19T22:15:45.355Z,102921.97
2024-02-19T22:18:20.292Z,102929.50
2024-02-19T22:20:52.349Z,102925.94
2024-02-19T22:23:23.710Z,102929.28
2024-02-19T22:25:55.282Z,102932.63
2024-02-19T22:28:26.756Z,102940.16
2024-02-19T22:30:58.350Z,102939.22
2024-02-19T22:33:32.279Z,102940.84
2024-02-19T22:36:04.950Z,102946.78
2024-02-19T22:38:36.262Z,102951.75
2024-02-19T22:41:07.471Z,102945.81
2024-02-19T22:43:38.852Z,102950.09
2024-02-19T22:46:10.235Z,102941.56
2024-02-19T22:48:44.225Z,102943.22
2024-02-19T22:51:15.799Z,102944.03
2024-02-19T22:53:47.085Z,102944.91
2024-02-19T22:56:17.859Z,102949.09
2024-02-19T22:58:49.314Z,102948.19
2024-02-19T23:01:22.788Z,102943.91
2024-02-19T23:03:57.191Z,102942.22
2024-02-19T23:06:28.560Z,102942.25
2024-02-19T23:08:59.852Z,102943.91
2024-02-19T23:11:31.043Z,102943.88
2024-02-19T23:14:02.361Z,102937.91
2024-02-19T23:16:33.195Z,102934.53
2024-02-19T23:19:07.210Z,102938.72
2024-02-19T23:21:39.541Z,102948.00
2024-02-19T23:24:11.493Z,102953.81
2024-02-19T23:26:42.719Z,102950.41
2024-02-19T23:29:13.706Z,102952.91
2024-02-19T23:31:45.629Z,102955.38
2024-02-19T23:34:19.766Z,102963.81
2024-02-19T23:36:51.183Z,102964.56
2024-02-19T23:39:21.967Z,102966.16
2024-02-19T23:41:53.694Z,102964.41
2024-02-19T23:44:24.952Z,102961.72
2024-02-19T23:46:55.773Z,102960.78
2024-02-19T23:49:29.808Z,102955.75
2024-02-19T23:52:01.508Z,102958.25
2024-02-19T23:54:33.017Z,102957.31
2024-02-19T23:57:04.310Z,102952.28
2024-02-19T23:59:35.096Z,102959.94
